ADDS METAR Data INFO
IDs: Format: Raw Decoded Include TAF

Data at: 0717 UTC 24 Jun 2018

KFLL 240653Z 00000KT 10SM SCT029 SCT070 SCT220 26/26 A3000 RMK AO2 SLP158 T02610256
KFLL 240553Z 31003KT 10SM SCT027 SCT110 SCT220 26/26 A3002 RMK AO2 SLP165 T02610256 10272 20256 57007
KFLL 240453Z 00000KT 10SM FEW027 SCT120 SCT220 26/26 A3003 RMK AO2 SLP168 T02560256 403220239
KFLL 240353Z 00000KT 10SM FEW027 SCT220 26/25 A3003 RMK AO2 SLP167 T02610250
KFLL 240253Z 16003KT 10SM FEW028 FEW070 SCT100 BKN250 27/25 A3004 RMK AO2 LTG DSNT NE SLP171 FRQ LTGIC DSNT NE CB DSNT NE MOV SW T02670250 51012
KFLL 240153Z 00000KT 10SM FEW028 FEW070 BKN250 27/25 A3003 RMK AO2 LTG DSNT NE SLP169 FRQ LTGIC DSNT NE CB DSNT NE T02670250
KFLL 240053Z 26003KT 10SM FEW028 FEW070 SCT120 BKN250 27/26 A3002 RMK AO2 SLP165 T02670256
KFLL 232353Z 24005KT 10SM FEW028 SCT070 BKN120 BKN250 27/25 A3000 RMK AO2 SLP159 60074 T02720250 10317 20239 56002
KFLL 232253Z 31003KT 10SM FEW028 BKN070 BKN120 BKN250 27/26 A3000 RMK AO2 LTG DSNT N SLP160 CB DSNT N T02670256
KFLL 232153Z 00000KT 10SM FEW028 BKN034 BKN120 BKN250 25/24 A2999 RMK AO2 LTG DSNT S RAE21 TSE10B11E30 SLP155 CB DSNT E AND S MOV S P0005 T02500244
KFLL 232130Z 24007KT 10SM SCT028 SCT034 BKN050 BKN250 25/24 A2999 RMK AO2 LTG DSNT E-SW RAE21 TSE10B11E30 CB DSNT E AND S-W MOV S P0005 T02500244
KFLL 232106Z 24011KT 8SM -TSRA SCT028CB BKN034 BKN050 BKN250 24/24 A3001 RMK AO2 LTG DSNT S-W OCNL LTGICCG OHD-S AND SW-W TS OHD-S AND SW-W MOV S P0005 T02440239
KFLL 232053Z 21014KT 3SM R10L/3000VP6000FT -TSRA BR BKN026CB OVC032 24/24 A3001 RMK AO2 WSHFT 2002 LTG DSNT S-W RAB1956 TSB1959 SLP161 OCNL LTGICCG OHD-S AND SW-NW TS OHD-S AND SW-NW MOV S P0069 60069 T02440244 55005
KFLL 232040Z 21010KT 2SM TSRA BR BKN026CB OVC032 25/25 A3001 RMK AO2 WSHFT 2002 LTG DSNT W AND NW RAB1956 TSB1959 FRQ LTGICCG OHD TS OHD MOV S P0054 T02500250
KFLL 232026Z 28009G17KT 1/2SM R10L/2400VP6000FT +TSRA FG BKN026CB OVC032 24/24 A3002 RMK AO2 WSHFT 2002 LTG DSNT NW RAB1956 TSB1959 FRQ LTGICCG OHD TS OHD MOV S P0046 T02390239
KFLL 232022Z 28012G19KT 1SM R10L/2400VP6000FT TSRA BR FEW006 BKN026CB OVC032 24/24 A3002 RMK AO2 WSHFT 2002 LTG DSNT NW RAB1956 TSB1959 FRQ LTGICCG OHD TS OHD MOV S P0042 T02440239
KFLL 232015Z 29012G24KT 1SM R10L/3500VP6000FT +TSRA BR FEW006 BKN026CB OVC032 25/23 A3002 RMK AO2 LTG DSNT NW RAB1956 TSB1959 PRESRR FRQ LTGICCG OHD TS OHD MOV S P0026 T02500233
KFLL 232010Z 29015G24KT 3/4SM R10L/3500VP6000FT +TSRA BR BKN026CB BKN032 BKN050 26/24 A3001 RMK AO2 LTG DSNT NW RAB1956 TSB1959 FRQ LTGICCG OHD TS OHD MOV S P0022 T02560244
KFLL 232006Z 32013G18KT 1 1/2SM R10L/3500VP6000FT +TSRA BR BKN028CB BKN037 BKN050 26/24 A3001 RMK AO2 LTG DSNT NW RAB1956 TSB1959 PRESRR FRQ LTGICCG OHD TS OHD MOV S P0016 T02610244
KFLL 232003Z 33013G23KT 2 1/2SM R10L/5500VP6000FT +TSRA BR BKN028CB BKN037 BKN050 BKN250 27/24 A3000 RMK AO2 LTG DSNT NW RAB1956 TSB1959 FRQ LTGICCG OHD AND NW-N TS OHD AND NW-N MOV S P0008 T02670244
KFLL 232001Z 01009G23KT 330V050 4SM -TSRA BR BKN028CB BKN037 BKN050 BKN250 27/24 A2999 RMK AO2 LTG DSNT NW RAB1956 TSB1959 OCNL LTGICCG OHD AND NW-N TS OHD AND NW-N MOV S P0004 T02670244
KFLL 231953Z 04011KT 10SM VCTS SCT028CB BKN037 BKN250 29/24 A2999 RMK AO2 LTG DSNT NW SLP154 CB NW-N MOV STNRY T02940244
KFLL 231946Z 09011KT 10SM VCTS SCT028CB BKN037 BKN250 30/24 A2998 RMK AO2 LTG DSNT NW CB NW-N MOV STNRY T03000239
KFLL 231853Z VRB05KT 10SM SCT030 BKN180 BKN250 32/26 A3000 RMK AO2 SLP159 T03170256
KFLL 231753Z VRB04KT 10SM SCT035 BKN110 31/26 A3003 RMK AO2 LTG DSNT N RAE1654 SLP167 CB DSNT SW P0000 60079 T03060261 10322 20239 50000
KFLL 231737Z 00000KT 10SM FEW025 SCT035 BKN100 29/24 A3003 RMK AO2 LTG DSNT SW-N RAE1654 CB DSNT SW P0000 T02890244
KFLL 231714Z 00000KT 10SM VCTS SCT043CB SCT055 BKN080 27/24 A3002 RMK AO2 LTG DSNT SW-N RAE1654 CB OHD-SW MOV N P0000 T02720244
KFLL 231703Z VRB03KT 10SM FEW041CB SCT055 BKN070 27/25 A3003 RMK AO2 LTG DSNT N AND SW RAE1654 CB OHD-SW AND DSNT NW MOV N P0000 T02670250
KFLL 231653Z 23005KT 10SM VCTS -RA SCT039CB SCT055 OVC070 27/24 A3003 RMK AO2 LTG DSNT N AND SW TSE37 SLP168 CB OHD-SW AND DSNT NW MOV N P0063 T02670244
KFLL 231643Z 26007KT 8SM VCTS -RA SCT035CB BKN041 OVC070 26/25 A3003 RMK AO2 LTG DSNT N AND SW TSE37 OCNL LTGICCG NW TS NW MOV N CB OHD-S-W-NW MOV N P0063 T02610250
KFLL 231633Z 32006KT 8SM -TSRA SCT035CB BKN041 OVC070 26/24 A3003 RMK AO2 LTG DSNT ALQDS VIS LWR SW-NW OCNL LTGICCG SW-NW TS SW-NW MOV N CB OHD-S-W-NW MOV N P0063 T02610244
KFLL 231611Z 35006KT 4SM R10L/2800V5500FT TSRA BR BKN023CB BKN041 OVC070 24/23 A3004 RMK AO2 LTG DSNT S AND SW VIS LWR SW-NW OCNL LTGICCG S-W-NW TS S-W-NW MOV N CB OHD-ALQDS MOV N P0048 T02390228
KFLL 231600Z 36008KT 350V050 1/2SM R10L/2000VP6000FT +TSRA FG BKN027CB BKN041 OVC070 25/24 A3006 RMK AO2 LTG DSNT S AND SW OCNL LTGICCG OHD-NE-SE-SW TS OHD-NE-SE-SW MOV NE CB OHD-ALQDS MOV NE P0026 T02500244
KFLL 231553Z 15008G16KT 2SM TSRA BR SCT031CB BKN060 BKN075 26/24 A3005 RMK AO2 WSHFT 1503 LTG DSNT S AND SW RAB09 TSB16 SLP176 OCNL LTCICCG NE-SE TS NE-SE MOV NE CB OHD-ALQDS MOV NE P0016 T02610244
KFLL 231534Z 00000KT 2SM R10L/3500VP6000FT +TSRA FEW009 SCT027CB SCT055 28/23 A3005 RMK AO2 WSHFT 1503 LTG DSNT S RAB09 TSB16 OCNL LTCICCG OHD TS OHD MOV NE CB OHD-ALQDS MOV NE P0008 T02780228
KFLL 231522Z 30009KT 9SM -TSRA FEW009CB SCT030 SCT055 27/23 A3003 RMK AO2 WSHFT 1503 RAB09 TSB16 OCNL LTCICCG OHD-S-W TS OHD-S-W MOV N CB OHD-S-W-NW MOV N P0000 T02720233
KFLL 231517Z 29010G23KT 10SM -TSRA FEW055 28/23 A3003 RMK AO2 WSHFT 1503 LTG DSNT S RAB09 TSB16 P0000 T02830233
KFLL 231453Z 36005KT 10SM SCT032 BKN250 32/26 A3003 RMK AO2 LTG DSNT S SLP167 T03220256 53007
KFLL 231353Z 31005KT 10SM SCT026 SCT250 30/26 A3002 RMK AO2 SLP164 T03000256
KFLL 231253Z 30005KT 10SM FEW030 SCT150 29/26 A3001 RMK AO2 SLP162 T02940261
KFLL 231153Z 28005KT 10SM FEW025 SCT150 28/26 A3000 RMK AO2 SLP159 70062 T02780261 10278 20256 53010
KFLL 231053Z 24005KT 10SM FEW027 SCT080 SCT220 27/25 A2999 RMK AO2 SLP155 TCU DSNT E AND W T02670250
KFLL 230953Z 26003KT 10SM FEW027 FEW100 FEW220 26/25 A2998 RMK AO2 SLP152 T02610250
KFLL 230853Z 00000KT 10SM FEW100 FEW200 26/25 A2997 RMK AO2 SLP149 T02610250 56009
KFLL 230753Z 00000KT 10SM FEW100 FEW200 26/25 A2997 RMK AO2 SLP149 T02610250
KFLL 230653Z 00000KT 10SM FEW100 SCT200 26/25 A2998 RMK AO2 SLP152 T02610250
KFLL 230553Z 00000KT 10SM SCT100 SCT200 26/24 A3000 RMK AO2 SLP158 60002 T02610244 10272 20261 58002
KFLL 230453Z 23003KT 10SM SCT110 SCT220 26/24 A3001 RMK AO2 SLP161 T02610244 403390244
KFLL 230353Z 21006KT 10SM FEW033 SCT080 SCT220 26/24 A3001 RMK AO2 SLP161 T02610244
KFLL 230253Z 00000KT 10SM FEW080 SCT170 SCT250 27/24 A3000 RMK AO2 LTG DSNT S SLP160 CB DSNT S 60002 T02670244 51016
KFLL 230153Z 26004KT 10SM FEW028 FEW090 SCT110 BKN170 BKN250 27/24 A2999 RMK AO2 SLP156 T02670239
KFLL 230053Z 00000KT 10SM FEW028 SCT090 BKN110 BKN170 BKN250 26/25 A2999 RMK AO2 LTG DSNT SW RAE53 SLP155 CB DSNT SW NW-N P0002 T02610250
KFLL 222353Z 16004KT 10SM -RA FEW030 BKN110 BKN170 OVC250 26/24 A2996 RMK AO2 LTG DSNT W AND NW SLP144 CB DSNT SW-W NW MOV SE P0000 60060 T02610239 10333 20244 51001
KFLL 222253Z 12004KT 10SM -RA FEW020 FEW035 BKN110 BKN170 BKN220 27/25 A2996 RMK AO2 LTG DSNT ALQDS RAE24B52 TSE03 SLP144 OCNL LTGICCG DSNT E-SE CB DSNT E-SE MOV E P0000 T02670250
KFLL 222249Z 14004KT 10SM FEW015 FEW035 SCT110 BKN170 OVC220 26/25 A2996 RMK AO2 LTG DSNT ALQDS RAE24 TSE03 FRQ LTGICCG DSNT E-SE S CB DSNT NE E-SE S W P0000
KFLL 222229Z 14007KT 10SM VCTS FEW015 FEW035 SCT110 BKN170 OVC220 26/24 A2996 RMK AO2 LTG DSNT ALQDS RAE24 TSE03 FRQ LTGICCG DSNT E-SE S CB DSNT NE E-SE S W P0000 T02610244
KFLL 222209Z 14009KT 9SM VCTS -RA BR FEW025 FEW035CB BKN110 26/24 A2996 RMK AO2 LTG DSNT ALQDS TSE03 P0000 T02560244
KFLL 222153Z 12011KT 9SM -TSRA BR FEW025 FEW035CB BKN110 BKN170 BKN250 25/24 A2995 RMK AO2 PK WND 11034/2105 WSHFT 2044 LTG DSNT ALQDS SLP143 OCNL LTGCG NE-SE S-SW TS NE-SE MOV SE TS S-SW MOV S P0017 T02500239
KFLL 222114Z 11019G34KT 6SM TSRA BR SCT013 SCT030CB BKN050 BKN150 BKN250 26/23 A2993 RMK AO2 PK WND 11034/2105 WSHFT 2044 LTG DSNT N AND NE OCNL LTGICCG NE-SE-S TS NE-SE-S MOV S VIS LWR NE-SE-S P0017 T02610233
KFLL 222110Z 12018G34KT 4SM R10L/2200VP6000FT TSRA BR SCT013 BKN028CB BKN050 BKN150 BKN250 25/23 A2994 RMK AO2 PK WND 11034/2105 WSHFT 2044 LTG DSNT N AND NE FRQ LTGICCG NE-SE TS NE-SE MOV S VI LWR NE-SE-S P0017 T02500228
KFLL 222102Z 12027G33KT 1/8SM R10L/2200V4500FT +TSRA FG BKN013 BKN028CB OVC046 26/25 A2996 RMK AO2 PK WND 12033/2101 WSHFT 2044 CONS LTGICCG OHD-NE-SE MOV S TS OHD-NE-SE MOV S P0015 T02560250
KFLL 222100Z 12023KT 1/4SM R10L/2200V4500FT +TSRA FG BKN013 BKN028CB OVC046 26/25 A2997 RMK AO2 PK WND 12026/2100 WSHFT 2044 LTG DSNT N AND NE CONS LTGICCG OHD-NE-SE MOV S TS OHD-NE-SE MOV S P0012 T02560250
KFLL 222056Z 09014KT 3/4SM R10L/1400V3500FT +TSRA BR BKN013 BKN028CB OVC046 26/24 A2997 RMK AO2 LTG DSNT ALQDS FRQ LTGICCG OHD-NE-SE MOV S TS OHD-NE-SE MOV S P0006 T02560244
KFLL 222053Z 08013KT 1 1/2SM R10L/1400V4500FT +TSRA BR SCT010 BKN033CB OVC065 25/24 A2997 RMK AO2 PK WND 02032/2042 LTG DSNT ALQDS RAB41 TSB21 SLP148 OCNL LTGICCG OHD-E-SE TS OHD-E-SE MOV S P0043 60043 T02500244 53002
KFLL 222051Z 07014G32KT 1 1/2SM R10L/1400VP6000FT +TSRA BR SCT010 BKN033CB OVC065 25/24 A2996 RMK AO2 PK WND 02032/2042 LTG DSNT ALQDS RAB41 TSB21 OCNL LTGICCG N-OHD TS N-OHD MOV S P0035
KFLL 222044Z 02023G32KT 2 1/2SM R10L/4500VP6000FT +TSRA FEW025 BKN035CB BKN050 BKN160 BKN250 26/23 A2996 RMK AO2 PK WND 02032/2042 LTG DSNT ALQDS RAB41 TSB21 OCNL LTGICCG N-OHD TS N-OHD MOV S P0007 T02610233
KFLL 222024Z 14017KT 10SM TS FEW048 SCT090 SCT150 BKN250 31/24 A2994 RMK AO2 LTG DSNT ALQDS TSB21 CB DSNT N MOV SE T03110239
KFLL 222014Z 14013KT 10SM VCTS FEW048 SCT090 SCT150 BKN250 32/24 A2994 RMK AO2 LTG DSNT N AND NE AND S CB DSNT N MOV SE T03220244
KFLL 221953Z 14012KT 10SM SCT048 SCT090 BKN250 32/24 A2994 RMK AO2 LTG DSNT N AND S SLP140 CB DSNT N T03170244